createdAt,value
2018-09-09T00:00:07.843Z,101460.08
2018-09-09T00:02:36.933Z,101457.15
2018-09-09T00:05:05.999Z,101459.75
2018-09-09T00:07:34.695Z,101445.48
2018-09-09T00:10:03.498Z,101461.55
2018-09-09T00:12:32.973Z,101454.18
2018-09-09T00:15:02.094Z,101445.95
2018-09-09T00:17:30.808Z,101440.70
2018-09-09T00:19:59.628Z,101454.51
2018-09-09T00:22:29.485Z,101448.09
2018-09-09T00:24:58.489Z,101444.06
2018-09-09T00:27:27.086Z,101442.71
2018-09-09T00:29:56.539Z,101441.02
2018-09-09T00:32:26.127Z,101435.41
2018-09-09T00:34:56.256Z,101442.50
2018-09-09T00:37:24.845Z,101448.07
2018-09-09T00:39:55.067Z,101443.31
2018-09-09T00:42:24.380Z,101443.31
2018-09-09T00:44:54.424Z,101435.52
2018-09-09T00:47:24.087Z,101438.50
2018-09-09T00:49:57.813Z,101435.97
2018-09-09T00:52:33.900Z,101439.05
2018-09-09T00:55:02.683Z,101436.94
2018-09-09T00:57:31.336Z,101441.70
2018-09-09T01:00:01.321Z,101432.55
2018-09-09T01:02:30.865Z,101438.48
2018-09-09T01:05:00.403Z,101434.41
2018-09-09T01:07:30.969Z,101439.53
2018-09-09T01:09:59.676Z,101439.91
2018-09-09T01:12:28.816Z,101436.86
2018-09-09T01:14:57.601Z,101428.70
2018-09-09T01:17:26.753Z,101437.48
2018-09-09T01:19:57.656Z,101431.45
2018-09-09T01:22:26.319Z,101428.85
2018-09-09T01:24:55.233Z,101424.52
2018-09-09T01:27:23.925Z,101423.34
2018-09-09T01:29:52.513Z,101429.58
2018-09-09T01:32:21.226Z,101429.16
2018-09-09T01:34:51.133Z,101427.53
2018-09-09T01:37:20.484Z,101428.40
2018-09-09T01:39:49.109Z,101422.78
2018-09-09T01:42:17.976Z,101427.61
2018-09-09T01:44:46.929Z,101429.83
2018-09-09T01:47:16.615Z,101434.53
2018-09-09T01:49:45.215Z,101440.16
2018-09-09T01:52:14.663Z,101443.98
2018-09-09T01:54:43.231Z,101446.08
2018-09-09T01:57:12.996Z,101439.09
2018-09-09T01:59:41.558Z,101441.70
2018-09-09T02:02:11.348Z,101437.31
2018-09-09T02:04:40.032Z,101444.66
2018-09-09T02:07:08.728Z,101439.47
2018-09-09T02:09:37.347Z,101442.77
2018-09-09T02:12:05.917Z,101441.34
2018-09-09T02:14:35.414Z,101430.89
2018-09-09T02:17:04.711Z,101428.16
2018-09-09T02:19:33.285Z,101424.27
2018-09-09T02:22:01.963Z,101422.17
2018-09-09T02:24:30.676Z,101419.63
2018-09-09T02:26:59.321Z,101417.53
2018-09-09T02:29:27.899Z,101427.06
2018-09-09T02:31:56.496Z,101420.98
2018-09-09T02:34:25.927Z,101424.02
2018-09-09T02:36:54.537Z,101421.05
2018-09-09T02:39:23.686Z,101426.69
2018-09-09T02:41:53.134Z,101428.09
2018-09-09T02:44:22.037Z,101432.07
2018-09-09T02:46:50.694Z,101428.23
2018-09-09T02:49:20.196Z,101430.39
2018-09-09T02:51:48.819Z,101423.60
2018-09-09T02:54:17.507Z,101430.56
2018-09-09T02:56:46.336Z,101433.23
2018-09-09T02:59:15.073Z,101432.84
2018-09-09T03:01:44.310Z,101427.72
2018-09-09T03:04:14.148Z,101428.64
2018-09-09T03:06:42.766Z,101425.66
2018-09-09T03:09:11.757Z,101423.52
2018-09-09T03:11:41.392Z,101420.91
2018-09-09T03:14:09.913Z,101423.51
2018-09-09T03:16:39.304Z,101426.54
2018-09-09T03:19:08.050Z,101426.21
2018-09-09T03:21:37.845Z,101428.80
2018-09-09T03:24:06.606Z,101420.17
2018-09-09T03:26:35.216Z,101418.91
2018-09-09T03:29:04.502Z,101424.52
2018-09-09T03:31:33.204Z,101422.36
2018-09-09T03:34:02.564Z,101423.70
2018-09-09T03:36:32.173Z,101423.22
2018-09-09T03:39:00.857Z,101425.86
2018-09-09T03:41:30.302Z,101429.75
2018-09-09T03:43:59.387Z,101431.05
2018-09-09T03:46:29.703Z,101429.38
2018-09-09T03:48:59.726Z,101431.53
2018-09-09T03:51:29.312Z,101425.58
2018-09-09T03:53:59.826Z,101429.48
2018-09-09T03:56:28.566Z,101424.34
2018-09-09T03:58:58.116Z,101420.98
2018-09-09T04:01:27.851Z,101418.39
2018-09-09T04:03:58.456Z,101416.34
2018-09-09T04:06:27.168Z,101418.55
2018-09-09T04:08:55.823Z,101419.89
2018-09-09T04:11:24.489Z,101426.03
2018-09-09T04:13:53.456Z,101428.62
2018-09-09T04:16:22.744Z,101427.43
2018-09-09T04:18:52.375Z,101432.22
2018-09-09T04:21:22.072Z,101433.53
2018-09-09T04:23:51.766Z,101431.38
2018-09-09T04:26:20.776Z,101440.05
2018-09-09T04:28:49.472Z,101436.59
2018-09-09T04:31:18.837Z,101441.31
2018-09-09T04:33:47.459Z,101440.52
2018-09-09T04:36:16.088Z,101444.46
2018-09-09T04:38:45.119Z,101449.69
2018-09-09T04:41:14.158Z,101445.88
2018-09-09T04:43:42.915Z,101450.63
2018-09-09T04:46:12.217Z,101452.80
2018-09-09T04:48:41.665Z,101454.13
2018-09-09T04:51:11.304Z,101447.27
2018-09-09T04:53:40.026Z,101447.30
2018-09-09T04:56:10.032Z,101453.34
2018-09-09T04:58:39.803Z,101443.89
2018-09-09T05:01:09.943Z,101459.86
2018-09-09T05:03:38.643Z,101459.47
2018-09-09T05:06:07.293Z,101457.31
2018-09-09T05:08:36.050Z,101459.50
2018-09-09T05:11:05.882Z,101459.97
2018-09-09T05:13:35.672Z,101469.48
2018-09-09T05:16:04.358Z,101469.47
2018-09-09T05:18:32.920Z,101468.14
2018-09-09T05:21:03.328Z,101473.75
2018-09-09T05:23:31.881Z,101474.66
2018-09-09T05:26:02.941Z,101480.66
2018-09-09T05:28:31.573Z,101478.07
2018-09-09T05:31:03.314Z,101478.50
2018-09-09T05:33:31.894Z,101474.19
2018-09-09T05:36:02.225Z,101473.75
2018-09-09T05:38:30.868Z,101469.40
2018-09-09T05:40:59.777Z,101475.84
2018-09-09T05:43:28.393Z,101475.37
2018-09-09T05:45:57.261Z,101485.30
2018-09-09T05:48:25.794Z,101492.60
2018-09-09T05:50:54.373Z,101494.37
2018-09-09T05:53:23.858Z,101493.89
2018-09-09T05:55:53.205Z,101494.72
2018-09-09T05:58:22.433Z,101502.45
2018-09-09T06:00:52.756Z,101506.34
2018-09-09T06:03:22.265Z,101507.20
2018-09-09T06:05:51.421Z,101506.34
2018-09-09T06:08:21.369Z,101507.17
2018-09-09T06:10:53.359Z,101507.17
2018-09-09T06:13:23.235Z,101508.38
2018-09-09T06:15:51.865Z,101499.23
2018-09-09T06:18:21.430Z,101501.73
2018-09-09T06:20:51.042Z,101502.99
2018-09-09T06:23:19.697Z,101503.81
2018-09-09T06:25:49.731Z,101504.21
2018-09-09T06:28:18.983Z,101502.86
2018-09-09T06:30:48.071Z,101495.52
2018-09-09T06:33:18.093Z,101496.77
2018-09-09T06:35:46.859Z,101490.66
2018-09-09T06:38:16.191Z,101490.53
2018-09-09T06:40:45.193Z,101499.51
2018-09-09T06:43:15.175Z,101506.23
2018-09-09T06:45:47.115Z,101511.25
2018-09-09T06:48:16.100Z,101512.77
2018-09-09T06:50:45.107Z,101513.80
2018-09-09T06:53:14.091Z,101516.65
2018-09-09T06:55:42.704Z,101517.02
2018-09-09T06:58:12.140Z,101509.05
2018-09-09T07:00:41.448Z,101510.41
2018-09-09T07:03:12.664Z,101502.38
2018-09-09T07:05:41.520Z,101511.56
2018-09-09T07:08:12.867Z,101505.52
2018-09-09T07:10:42.710Z,101512.60
2018-09-09T07:13:12.560Z,101512.41
2018-09-09T07:15:43.472Z,101515.41
2018-09-09T07:18:14.664Z,101519.80
2018-09-09T07:20:46.142Z,101526.36
2018-09-09T07:23:17.587Z,101521.62
2018-09-09T07:25:47.258Z,101526.11
2018-09-09T07:28:16.349Z,101528.47
2018-09-09T07:30:45.744Z,101527.97
2018-09-09T07:33:15.580Z,101538.02
2018-09-09T07:35:45.541Z,101538.44
2018-09-09T07:38:15.277Z,101540.98
2018-09-09T07:40:43.867Z,101531.73
2018-09-09T07:43:12.564Z,101532.09
2018-09-09T07:45:41.276Z,101527.39
2018-09-09T07:48:10.115Z,101519.59
2018-09-09T07:50:41.703Z,101519.09
2018-09-09T07:53:10.575Z,101515.02
2018-09-09T07:55:39.220Z,101521.29
2018-09-09T07:58:08.958Z,101521.52
2018-09-09T08:00:38.268Z,101529.62
2018-09-09T08:03:07.576Z,101527.72
2018-09-09T08:05:36.427Z,101529.38
2018-09-09T08:08:05.238Z,101529.80
2018-09-09T08:10:35.684Z,101534.50
2018-09-09T08:13:04.735Z,101539.55
2018-09-09T08:15:33.378Z,101544.42
2018-09-09T08:18:03.620Z,101544.33
2018-09-09T08:20:32.671Z,101547.58
2018-09-09T08:23:02.653Z,101540.42
2018-09-09T08:25:31.526Z,101540.16
2018-09-09T08:28:03.640Z,101542.06
2018-09-09T08:30:33.231Z,101537.41
2018-09-09T08:33:01.871Z,101539.05
2018-09-09T08:35:32.052Z,101538.61
2018-09-09T08:38:04.251Z,101543.72
2018-09-09T08:40:33.425Z,101546.27
2018-09-09T08:43:02.644Z,101538.05
2018-09-09T08:45:32.038Z,101541.02
2018-09-09T08:48:01.875Z,101544.08
2018-09-09T08:50:31.250Z,101541.88
2018-09-09T08:53:00.290Z,101537.91
2018-09-09T08:55:30.084Z,101546.66
2018-09-09T08:57:58.688Z,101543.57
2018-09-09T09:00:27.462Z,101537.39
2018-09-09T09:02:57.825Z,101543.34
2018-09-09T09:05:27.411Z,101532.27
2018-09-09T09:07:57.485Z,101538.09
2018-09-09T09:10:27.066Z,101534.00
2018-09-09T09:12:56.356Z,101532.48
2018-09-09T09:15:26.528Z,101534.02
2018-09-09T09:17:56.165Z,101535.56
2018-09-09T09:20:25.490Z,101537.19
2018-09-09T09:23:01.039Z,101534.90
2018-09-09T09:25:29.880Z,101540.44
2018-09-09T09:27:58.545Z,101530.36
2018-09-09T09:30:27.637Z,101529.30
2018-09-09T09:32:56.327Z,101522.14
2018-09-09T09:35:30.346Z,101527.52
2018-09-09T09:37:58.943Z,101524.20
2018-09-09T09:40:28.703Z,101526.53
2018-09-09T09:42:57.819Z,101522.06
2018-09-09T09:45:26.532Z,101518.98
2018-09-09T09:47:55.168Z,101515.69
2018-09-09T09:50:24.405Z,101514.97
2018-09-09T09:52:54.269Z,101516.87
2018-09-09T09:55:22.962Z,101513.12
2018-09-09T09:57:51.550Z,101510.71
2018-09-09T10:00:26.272Z,101514.94
2018-09-09T10:02:56.221Z,101511.25
2018-09-09T10:05:24.936Z,101505.06
2018-09-09T10:07:54.106Z,101514.95
2018-09-09T10:10:24.068Z,101519.81
2018-09-09T10:12:52.707Z,101510.48
2018-09-09T10:15:21.469Z,101507.13
2018-09-09T10:17:50.494Z,101503.44
2018-09-09T10:20:20.778Z,101515.47
2018-09-09T10:22:50.288Z,101505.20
2018-09-09T10:25:19.671Z,101512.30
2018-09-09T10:27:48.603Z,101503.28
2018-09-09T10:30:18.039Z,101493.16
2018-09-09T10:32:47.390Z,101485.68
2018-09-09T10:35:16.508Z,101491.53
2018-09-09T10:37:45.518Z,101492.69
2018-09-09T10:40:14.390Z,101499.02
2018-09-09T10:42:44.827Z,101497.97
2018-09-09T10:45:13.749Z,101497.80
2018-09-09T10:47:43.364Z,101498.19
2018-09-09T10:50:12.184Z,101503.20
2018-09-09T10:52:40.803Z,101505.93
2018-09-09T10:55:09.526Z,101503.77
2018-09-09T10:57:38.857Z,101503.98
2018-09-09T11:00:08.696Z,101499.90
2018-09-09T11:02:37.383Z,101504.89
2018-09-09T11:05:21.360Z,101507.19
2018-09-09T11:07:52.699Z,101505.94
2018-09-09T11:10:22.341Z,101495.84
2018-09-09T11:12:52.062Z,101494.41
2018-09-09T11:15:24.354Z,101498.33
2018-09-09T11:17:53.160Z,101487.44
2018-09-09T11:20:22.656Z,101488.12
2018-09-09T11:22:51.878Z,101490.89
2018-09-09T11:25:21.436Z,101485.33
2018-09-09T11:27:50.265Z,101489.44
2018-09-09T11:30:18.918Z,101486.01
2018-09-09T11:32:47.860Z,101495.16
2018-09-09T11:35:16.569Z,101498.20
2018-09-09T11:37:46.246Z,101488.72
2018-09-09T11:40:15.578Z,101494.87
2018-09-09T11:42:44.434Z,101494.87
2018-09-09T11:45:14.313Z,101493.47
2018-09-09T11:47:42.890Z,101494.65
2018-09-09T11:50:13.008Z,101493.00
2018-09-09T11:52:41.605Z,101488.78
2018-09-09T11:55:10.261Z,101487.08
2018-09-09T11:57:40.472Z,101483.93
2018-09-09T12:00:09.178Z,101485.88
2018-09-09T12:02:37.693Z,101485.28
2018-09-09T12:05:06.823Z,101488.16
2018-09-09T12:07:36.469Z,101484.31
2018-09-09T12:10:07.367Z,101481.00
2018-09-09T12:12:35.913Z,101477.27
2018-09-09T12:15:05.079Z,101476.47
2018-09-09T12:17:34.670Z,101487.29
2018-09-09T12:20:04.972Z,101486.49
2018-09-09T12:22:34.629Z,101490.11
2018-09-09T12:25:05.313Z,101492.19
2018-09-09T12:27:35.456Z,101490.54
2018-09-09T12:30:04.036Z,101490.63
2018-09-09T12:32:34.428Z,101487.58
2018-09-09T12:35:03.317Z,101495.17
2018-09-09T12:37:33.812Z,101491.69
2018-09-09T12:40:02.427Z,101492.59
2018-09-09T12:42:31.335Z,101484.83
2018-09-09T12:45:06.142Z,101481.05
2018-09-09T12:47:40.387Z,101477.01
2018-09-09T12:50:10.341Z,101478.28
2018-09-09T12:52:40.666Z,101479.28
2018-09-09T12:55:09.773Z,101478.46
2018-09-09T12:57:39.100Z,101482.34
2018-09-09T13:00:08.263Z,101479.27
2018-09-09T13:02:37.707Z,101479.17
2018-09-09T13:05:08.568Z,101470.85
2018-09-09T13:07:37.778Z,101479.34
2018-09-09T13:10:08.045Z,101469.62
2018-09-09T13:12:42.104Z,101471.52
2018-09-09T13:15:11.721Z,101469.67
2018-09-09T13:17:40.810Z,101471.91
2018-09-09T13:20:10.004Z,101474.63
2018-09-09T13:22:39.169Z,101476.31
2018-09-09T13:25:09.826Z,101474.56
2018-09-09T13:27:39.927Z,101471.92
2018-09-09T13:30:09.076Z,101472.30
2018-09-09T13:32:37.747Z,101466.59
2018-09-09T13:35:06.535Z,101463.77
2018-09-09T13:37:36.270Z,101466.48
2018-09-09T13:40:05.018Z,101472.61
2018-09-09T13:42:33.976Z,101468.92
2018-09-09T13:45:03.887Z,101462.70
2018-09-09T13:47:32.584Z,101460.95
2018-09-09T13:50:02.510Z,101461.89
2018-09-09T13:52:31.326Z,101465.00
2018-09-09T13:55:01.041Z,101465.60
2018-09-09T13:57:32.627Z,101463.80
2018-09-09T14:00:02.314Z,101461.92
2018-09-09T14:02:31.912Z,101466.85
2018-09-09T14:05:01.384Z,101474.06
2018-09-09T14:07:30.429Z,101475.72
2018-09-09T14:09:59.501Z,101474.72
2018-09-09T14:12:28.318Z,101479.52
2018-09-09T14:14:56.865Z,101479.31
2018-09-09T14:17:26.047Z,101482.73
2018-09-09T14:19:54.745Z,101475.92
2018-09-09T14:22:23.828Z,101476.30
2018-09-09T14:24:52.771Z,101471.02
2018-09-09T14:27:22.237Z,101476.85
2018-09-09T14:29:51.724Z,101478.64
2018-09-09T14:32:21.210Z,101467.32
2018-09-09T14:34:50.533Z,101473.77
2018-09-09T14:37:20.852Z,101475.35
2018-09-09T14:39:50.817Z,101473.57
2018-09-09T14:42:20.671Z,101474.01
2018-09-09T14:44:49.533Z,101474.53
2018-09-09T14:47:19.699Z,101472.88
2018-09-09T14:49:49.601Z,101472.24
2018-09-09T14:52:19.715Z,101472.36
2018-09-09T14:54:48.397Z,101465.58
2018-09-09T14:57:17.285Z,101464.48
2018-09-09T14:59:46.276Z,101461.64
2018-09-09T15:02:15.293Z,101464.66
2018-09-09T15:04:45.052Z,101461.08
2018-09-09T15:07:14.342Z,101459.41
2018-09-09T15:09:43.860Z,101452.65
2018-09-09T15:12:13.379Z,101450.55
2018-09-09T15:14:42.158Z,101451.39
2018-09-09T15:17:11.570Z,101455.75
2018-09-09T15:19:41.426Z,101451.24
2018-09-09T15:22:11.623Z,101443.73
2018-09-09T15:24:40.340Z,101447.33
2018-09-09T15:27:09.432Z,101444.30
2018-09-09T15:29:38.015Z,101444.54
2018-09-09T15:32:08.053Z,101442.72
2018-09-09T15:34:37.696Z,101446.13
2018-09-09T15:37:07.012Z,101446.13
2018-09-09T15:39:35.605Z,101442.12
2018-09-09T15:42:05.164Z,101440.09
2018-09-09T15:44:35.027Z,101439.89
2018-09-09T15:47:04.848Z,101439.78
2018-09-09T15:49:34.047Z,101436.98
2018-09-09T15:52:03.031Z,101438.80
2018-09-09T15:54:31.834Z,101436.17
2018-09-09T15:57:00.421Z,101436.79
2018-09-09T15:59:29.056Z,101437.20
2018-09-09T16:01:57.768Z,101440.16
2018-09-09T16:04:33.203Z,101437.36
2018-09-09T16:07:04.843Z,101442.34
2018-09-09T16:09:42.537Z,101437.75
2018-09-09T16:12:11.944Z,101437.70
2018-09-09T16:14:41.724Z,101442.88
2018-09-09T16:17:10.910Z,101439.83
2018-09-09T16:19:40.428Z,101437.46
2018-09-09T16:22:09.396Z,101437.81
2018-09-09T16:24:38.068Z,101433.76
2018-09-09T16:27:08.134Z,101431.47
2018-09-09T16:29:38.258Z,101442.25
2018-09-09T16:32:06.833Z,101441.69
2018-09-09T16:34:36.242Z,101440.76
2018-09-09T16:37:05.727Z,101444.97
2018-09-09T16:39:34.895Z,101451.23
2018-09-09T16:42:04.085Z,101449.15
2018-09-09T16:44:32.840Z,101450.59
2018-09-09T16:47:02.039Z,101454.18
2018-09-09T16:49:30.789Z,101459.56
2018-09-09T16:52:00.505Z,101461.20
2018-09-09T16:54:29.205Z,101460.74
2018-09-09T16:56:58.824Z,101455.31
2018-09-09T16:59:28.057Z,101447.36
2018-09-09T17:01:57.963Z,101446.45
2018-09-09T17:04:26.793Z,101444.82
2018-09-09T17:06:55.507Z,101445.46
2018-09-09T17:09:24.798Z,101451.83
2018-09-09T17:11:53.619Z,101454.83
2018-09-09T17:14:22.478Z,101452.20
2018-09-09T17:16:51.992Z,101450.02
2018-09-09T17:19:21.711Z,101445.34
2018-09-09T17:21:50.450Z,101447.78
2018-09-09T17:24:21.299Z,101455.95
2018-09-09T17:26:49.999Z,101454.53
2018-09-09T17:29:19.002Z,101446.64
2018-09-09T17:31:48.019Z,101453.20
2018-09-09T17:34:16.601Z,101454.43
2018-09-09T17:36:45.146Z,101458.19
2018-09-09T17:39:13.726Z,101458.07
2018-09-09T17:41:43.166Z,101455.86
2018-09-09T17:44:12.700Z,101461.78
2018-09-09T17:46:41.410Z,101460.45
2018-09-09T17:49:10.938Z,101467.27
2018-09-09T17:51:39.775Z,101460.66
2018-09-09T17:54:08.466Z,101463.98
2018-09-09T17:56:39.196Z,101465.63
2018-09-09T17:59:08.673Z,101463.73
2018-09-09T18:01:37.469Z,101470.93
2018-09-09T18:04:06.371Z,101474.63
2018-09-09T18:06:35.168Z,101473.13
2018-09-09T18:09:06.861Z,101479.01
2018-09-09T18:11:36.207Z,101476.19
2018-09-09T18:14:05.458Z,101479.43
2018-09-09T18:16:34.162Z,101478.84
2018-09-09T18:19:03.655Z,101483.34
2018-09-09T18:21:33.744Z,101480.53
2018-09-09T18:24:02.985Z,101491.97
2018-09-09T18:26:32.127Z,101492.61
2018-09-09T18:29:00.757Z,101493.67
2018-09-09T18:31:29.358Z,101504.25
2018-09-09T18:33:58.097Z,101506.64
2018-09-09T18:36:26.734Z,101507.21
2018-09-09T18:38:55.580Z,101504.34
2018-09-09T18:41:24.248Z,101502.72
2018-09-09T18:43:53.249Z,101506.76
2018-09-09T18:46:21.970Z,101499.95
2018-09-09T18:48:56.614Z,101491.38
2018-09-09T18:51:31.540Z,101495.48
2018-09-09T18:54:00.434Z,101493.98
2018-09-09T18:56:29.185Z,101496.70
2018-09-09T18:58:58.007Z,101495.55
2018-09-09T19:01:26.842Z,101499.52
2018-09-09T19:03:55.967Z,101502.72
2018-09-09T19:06:26.798Z,101506.25
2018-09-09T19:08:56.068Z,101502.48
2018-09-09T19:11:26.044Z,101499.48
2018-09-09T19:13:56.100Z,101505.20
2018-09-09T19:16:27.841Z,101504.85
2018-09-09T19:18:56.891Z,101502.38
2018-09-09T19:21:26.485Z,101502.89
2018-09-09T19:23:56.209Z,101498.64
2018-09-09T19:26:26.346Z,101507.87
2018-09-09T19:28:57.022Z,101508.80
2018-09-09T19:31:27.208Z,101506.73
2018-09-09T19:33:57.245Z,101503.75
2018-09-09T19:36:27.490Z,101499.06
2018-09-09T19:38:56.540Z,101497.87
2018-09-09T19:41:27.748Z,101499.20
2018-09-09T19:43:57.277Z,101507.09
2018-09-09T19:46:27.274Z,101508.48
2018-09-09T19:48:57.012Z,101509.02
2018-09-09T19:51:25.871Z,101508.30
2018-09-09T19:53:54.885Z,101506.22
2018-09-09T19:56:23.618Z,101504.16
2018-09-09T19:58:53.841Z,101508.59
2018-09-09T20:01:22.802Z,101510.41
2018-09-09T20:03:51.623Z,101505.72
2018-09-09T20:06:21.220Z,101514.50
2018-09-09T20:08:50.769Z,101517.59
2018-09-09T20:11:21.295Z,101510.74
2018-09-09T20:13:50.946Z,101516.41
2018-09-09T20:16:20.469Z,101513.44
2018-09-09T20:18:56.349Z,101510.03
2018-09-09T20:21:24.947Z,101510.12
2018-09-09T20:23:53.870Z,101505.86
2018-09-09T20:26:23.248Z,101500.67
2018-09-09T20:28:52.207Z,101503.86
2018-09-09T20:31:22.566Z,101502.14
2018-09-09T20:33:51.228Z,101505.61
2018-09-09T20:36:21.153Z,101507.72
2018-09-09T20:38:49.857Z,101507.33
2018-09-09T20:41:18.849Z,101510.00
2018-09-09T20:43:47.612Z,101505.83
2018-09-09T20:46:16.430Z,101506.75
2018-09-09T20:48:46.287Z,101515.44
2018-09-09T20:51:14.899Z,101512.02
2018-09-09T20:53:43.638Z,101513.36
2018-09-09T20:56:12.319Z,101514.73
2018-09-09T20:58:41.035Z,101511.33
2018-09-09T21:01:09.662Z,101511.33
2018-09-09T21:03:38.283Z,101515.69
2018-09-09T21:06:06.927Z,101517.50
2018-09-09T21:08:38.119Z,101511.92
2018-09-09T21:11:06.884Z,101512.41
2018-09-09T21:13:36.086Z,101510.25
2018-09-09T21:16:04.814Z,101509.41
2018-09-09T21:18:33.579Z,101512.45
2018-09-09T21:21:03.264Z,101509.03
2018-09-09T21:23:31.836Z,101512.95
2018-09-09T21:26:00.619Z,101507.87
2018-09-09T21:28:29.236Z,101513.88
2018-09-09T21:30:58.771Z,101510.42
2018-09-09T21:33:27.506Z,101515.69
2018-09-09T21:35:56.476Z,101509.62
2018-09-09T21:38:25.898Z,101512.21
2018-09-09T21:40:54.596Z,101513.07
2018-09-09T21:43:26.754Z,101513.97
2018-09-09T21:45:55.898Z,101512.28
2018-09-09T21:48:25.001Z,101511.86
2018-09-09T21:50:53.776Z,101506.73
2018-09-09T21:53:22.293Z,101513.73
2018-09-09T21:55:51.624Z,101506.82
2018-09-09T21:58:20.769Z,101509.03
2018-09-09T22:00:54.594Z,101503.03
2018-09-09T22:03:23.281Z,101506.16
2018-09-09T22:05:52.237Z,101506.17
2018-09-09T22:08:21.208Z,101505.36
2018-09-09T22:10:50.242Z,101507.09
2018-09-09T22:13:19.058Z,101504.06
2018-09-09T22:15:48.420Z,101502.27
2018-09-09T22:18:18.934Z,101498.78
2018-09-09T22:20:48.283Z,101504.84
2018-09-09T22:23:17.053Z,101499.67
2018-09-09T22:25:45.764Z,101499.67
2018-09-09T22:28:14.358Z,101502.27
2018-09-09T22:30:44.048Z,101497.64
2018-09-09T22:33:13.168Z,101498.92
2018-09-09T22:35:42.220Z,101501.48
2018-09-09T22:38:10.814Z,101504.20
2018-09-09T22:40:39.516Z,101507.73
2018-09-09T22:43:08.470Z,101513.44
2018-09-09T22:45:37.435Z,101506.99
2018-09-09T22:48:06.147Z,101509.11
2018-09-09T22:50:34.725Z,101505.70
2018-09-09T22:53:03.587Z,101509.62
2018-09-09T22:55:32.609Z,101510.11
2018-09-09T22:58:01.470Z,101507.69
2018-09-09T23:00:31.604Z,101499.06
2018-09-09T23:03:00.236Z,101502.91
2018-09-09T23:05:29.093Z,101506.02
2018-09-09T23:07:57.873Z,101500.06
2018-09-09T23:10:26.598Z,101500.51
2018-09-09T23:12:55.279Z,101499.28
2018-09-09T23:15:27.395Z,101494.13
2018-09-09T23:17:56.516Z,101490.67
2018-09-09T23:20:25.090Z,101490.80
2018-09-09T23:22:54.256Z,101493.45
2018-09-09T23:25:23.749Z,101487.04
2018-09-09T23:27:52.716Z,101490.87
2018-09-09T23:30:21.967Z,101486.41
2018-09-09T23:32:50.928Z,101481.16
2018-09-09T23:35:19.441Z,101479.41
2018-09-09T23:37:48.051Z,101480.77
2018-09-09T23:40:16.874Z,101478.73
2018-09-09T23:42:47.453Z,101480.03
2018-09-09T23:45:16.345Z,101471.39
2018-09-09T23:47:45.154Z,101466.13
2018-09-09T23:50:13.699Z,101471.75
2018-09-09T23:52:42.271Z,101467.86
2018-09-09T23:55:11.139Z,101472.62
2018-09-09T23:57:39.736Z,101468.34
